Webster, Minnesota
Current Conditions -  °F | °C
As of 11:26 PM on Saturday 22 Nov 2014 (Local Time) from KLVN Reporting Station
Haze Haze  
Wind Chill: 40°   Ceiling: 1600
Heat Index: 45°   Visibility: 5mi
Dew Point: 43°   Wind: 9mph
Humidity: 93%   Direction: 190°S
Pressure: 29.5"   Gusts: NA
Location:  44.53°N, 93.35°W
Report Text: KLVN 230526Z AUTO 19008KT 5SM BR BKN016 07/06 A2950 RMK AO2
Loading
Personal Weather Stations






























Interactive Weather Map New forecast layout! Learn more

10-Day Weather Forecast

Advertisements
Track Severe Weather on mobile